Scott Camp — WDF3203 — position and weather

sailwx.info

Track history (hours):
 
Tides and Currents Weather Stations Pressure Air Temp Water Temp Dewpoint Dewpoint Depression Visibility Wind Speed Wind Dir Waves Ship Positions

Scott Camp

Owner: Florida Marine Transporters, Inc., Mandeville, LA. More information available from US FCC via Universal Licensing System and Coast Guard Vessel Documentation Center.

Last reported at 2018-Feb-23 18:23 UTC. Time now 2018-Feb-25 03:48 UTC.
Position N 29°25' W 094°43'.

Length 27 m; draft 2.5 m.

Type: Towing. MMSI: 367437150.

Date/timePositionNaut miles runAvg speedWind from/ knotsBaromVisibWave heightAir tempDewpointWater temp
2018-Feb-23 18:23N 29°25' W 094°43'2 4.6
2018-Feb-23 17:56N 29°27' W 094°42'1 0.2
2018-Feb-23 09:31N 29°27' W 094°40'0 0.0
2018-Feb-23 09:30N 29°27' W 094°40'0 0.0
2018-Feb-23 08:37N 29°27' W 094°40'0 0.0
2018-Feb-23 08:26N 29°27' W 094°40'0 0.0
2018-Feb-23 07:33N 29°27' W 094°40'0 0.0
2018-Feb-23 07:24N 29°27' W 094°40'0 0.0
2018-Feb-23 06:19N 29°27' W 094°40'0 0.0
2018-Feb-23 03:36N 29°27' W 094°40'17 5.2
2018-Feb-23 00:26N 29°36' W 094°24'3 6.4
2018-Feb-22 23:57N 29°37' W 094°21'3 7.0
2018-Feb-22 23:30N 29°38' W 094°18'4 7.0
2018-Feb-22 23:00N 29°40' W 094°14'3 5.9
2018-Feb-22 22:30N 29°41' W 094°11'3 6.3
2018-Feb-22 22:00N 29°43' W 094°08'3 6.8
2018-Feb-22 21:30N 29°45' W 094°05'3 6.8
2018-Feb-22 21:00N 29°47' W 094°02'3 6.5
2018-Feb-22 20:30N 29°49' W 093°59'3 6.6
2018-Feb-22 20:00N 29°52' W 093°56'4 7.6
2018-Feb-22 19:30N 29°55' W 093°54'3 6.1
2018-Feb-22 19:00N 29°57' W 093°52'4 7.2
2018-Feb-22 18:30N 29°59' W 093°48'4 7.6
2018-Feb-22 18:00N 30°01' W 093°45'3 6.5
2018-Feb-22 17:30N 30°03' W 093°42'4 7.0
2018-Feb-22 16:58N 30°04' W 093°38'2 4.2
2018-Feb-22 16:30N 30°04' W 093°35'4 6.2
2018-Feb-22 15:52N 30°04' W 093°31'2 6.3
2018-Feb-22 15:30N 30°04' W 093°28'4 6.1
2018-Feb-22 14:54N 30°04' W 093°24'3 4.9
2018-Feb-22 14:18N 30°04' W 093°21'1 4.4
2018-Feb-22 14:00N 30°05' W 093°20'1 1.9
2018-Feb-22 13:16N 30°04' W 093°21'0 0.0
2018-Feb-22 13:00N 30°04' W 093°21'0 0.0
2018-Feb-22 12:28N 30°04' W 093°21'0 0.0
2018-Feb-22 10:58N 30°04' W 093°21'0 0.0
2018-Feb-22 10:22N 30°04' W 093°21'0 0.0
2018-Feb-22 10:00N 30°04' W 093°21'0 0.0
2018-Feb-22 09:30N 30°04' W 093°21'0 0.0
2018-Feb-22 08:42N 30°04' W 093°21'0 0.0
2018-Feb-22 08:30N 30°04' W 093°21'0 0.0
2018-Feb-22 07:58N 30°04' W 093°21'0 0.0
2018-Feb-22 07:30N 30°04' W 093°21'0 0.0
2018-Feb-22 07:00N 30°04' W 093°21'0 0.0
2018-Feb-22 06:28N 30°04' W 093°21'0 0.0
2018-Feb-22 06:00N 30°04' W 093°21'0 0.0
2018-Feb-22 05:24N 30°04' W 093°21'0 0.0
2018-Feb-22 05:00N 30°04' W 093°21'0 0.0
2018-Feb-22 04:24N 30°04' W 093°21'0 0.0
2018-Feb-22 03:50N 30°04' W 093°21'0 0.0
2018-Feb-22 03:28N 30°04' W 093°21'0 0.0
2018-Feb-22 03:00N 30°04' W 093°21'0 0.0
2018-Feb-22 02:24N 30°04' W 093°21'0 0.0
2018-Feb-22 01:46N 30°04' W 093°21'0 0.0
2018-Feb-22 01:30N 30°04' W 093°21'0 0.0
2018-Feb-22 00:50N 30°04' W 093°21'0 0.0
2018-Feb-22 00:30N 30°04' W 093°21'2 3.6
2018-Feb-22 00:00N 30°06' W 093°20'4 6.7
2018-Feb-21 23:28N 30°09' W 093°20'2 2.8
2018-Feb-21 22:50N 30°11' W 093°19'0 0.0
2018-Feb-21 22:30N 30°11' W 093°19'0 0.0
2018-Feb-21 22:00N 30°11' W 093°19'0 0.0
2018-Feb-21 21:22N 30°11' W 093°19'0 0.0
2018-Feb-21 21:00N 30°11' W 093°19'0 0.0
2018-Feb-21 20:30N 30°11' W 093°19'0 0.0
2018-Feb-21 20:00N 30°11' W 093°19'0 0.0
2018-Feb-21 19:24N 30°11' W 093°19'0 0.0
2018-Feb-21 19:00N 30°11' W 093°19'0 0.0
2018-Feb-21 18:28N 30°11' W 093°19'0 0.0
2018-Feb-21 18:00N 30°11' W 093°19'0 0.0
2018-Feb-21 17:30N 30°11' W 093°19'0 0.0
2018-Feb-21 17:00N 30°11' W 093°19'0 0.0
2018-Feb-21 16:30N 30°11' W 093°19'0 0.0
2018-Feb-21 16:00N 30°11' W 093°19'0 0.0
2018-Feb-21 15:30N 30°11' W 093°19'0 0.0
2018-Feb-21 14:58N 30°11' W 093°19'0 0.0
2018-Feb-21 14:30N 30°11' W 093°19'0 0.0
2018-Feb-21 14:00N 30°11' W 093°19'0 0.0
2018-Feb-21 13:30N 30°11' W 093°19'0 0.0
2018-Feb-21 13:00N 30°11' W 093°19'0 0.0
2018-Feb-21 12:30N 30°11' W 093°19'0 0.0
2018-Feb-21 12:00N 30°11' W 093°19'0 0.0
2018-Feb-21 11:30N 30°11' W 093°19'0 0.7
2018-Feb-21 11:00N 30°11' W 093°18'1 2.5
2018-Feb-21 10:31N 30°10' W 093°19'0 0.3
2018-Feb-21 10:00N 30°10' W 093°19'3 6.5
2018-Feb-21 09:30N 30°07' W 093°20'2 4.6
2018-Feb-21 09:00N 30°05' W 093°20'1 2.8
2018-Feb-21 08:30N 30°04' W 093°21'1 2.0
2018-Feb-21 08:00N 30°04' W 093°21'0 0.1
2018-Feb-21 07:30N 30°04' W 093°21'0 0.0
2018-Feb-21 07:00N 30°04' W 093°21'0 0.7
2018-Feb-21 06:30N 30°05' W 093°20'2 3.6
2018-Feb-21 06:00N 30°06' W 093°20'3 6.8
2018-Feb-21 05:30N 30°10' W 093°19'2 3.2
2018-Feb-21 05:00N 30°11' W 093°19'0 0.0
2018-Feb-21 04:30N 30°11' W 093°19'0 0.0
2018-Feb-21 04:00N 30°11' W 093°19'0 0.0
2018-Feb-21 03:30N 30°11' W 093°19'0 0.0
2018-Feb-21 03:00N 30°11' W 093°19'0 0.0
2018-Feb-21 02:30N 30°11' W 093°19'0 0.0
2018-Feb-21 02:00N 30°11' W 093°19'0 0.0
2018-Feb-21 01:30N 30°11' W 093°19'0 0.0
2018-Feb-21 01:00N 30°11' W 093°19'0 0.0
2018-Feb-21 00:30N 30°11' W 093°19'0 0.0
2018-Feb-21 00:00N 30°11' W 093°19'0 0.0
2018-Feb-20 23:30N 30°11' W 093°19'0 0.0
2018-Feb-20 23:00N 30°11' W 093°19'0 0.0
2018-Feb-20 22:30N 30°11' W 093°19'2 3.2
2018-Feb-20 22:00N 30°10' W 093°19'1 1.0
2018-Feb-20 21:30N 30°10' W 093°19'1 2.2
2018-Feb-20 21:00N 30°11' W 093°19'0 0.0
2018-Feb-20 20:29N 30°11' W 093°19'0 0.1
2018-Feb-20 20:00N 30°11' W 093°19'0 0.1
2018-Feb-20 19:30N 30°11' W 093°19'0 0.1
2018-Feb-20 19:00N 30°11' W 093°19'0 0.0
2018-Feb-20 18:30N 30°11' W 093°19'0 0.0
2018-Feb-20 18:00N 30°11' W 093°19'0 0.0
2018-Feb-20 17:30N 30°11' W 093°19'0 0.0
2018-Feb-20 17:00N 30°11' W 093°19'0 0.0
2018-Feb-20 16:30N 30°11' W 093°19'0 0.0
2018-Feb-20 16:00N 30°11' W 093°19'0 0.0
2018-Feb-20 15:30N 30°11' W 093°19'0 0.0
2018-Feb-20 15:00N 30°11' W 093°19'0 0.0
2018-Feb-20 14:30N 30°11' W 093°19'0 0.0
2018-Feb-20 14:00N 30°11' W 093°19'0 0.0
2018-Feb-20 13:30N 30°11' W 093°19'0 0.0
2018-Feb-20 13:00N 30°11' W 093°19'0 0.0
2018-Feb-20 12:30N 30°11' W 093°19'0 0.0
2018-Feb-20 12:00N 30°11' W 093°19'0 0.0
2018-Feb-20 11:30N 30°11' W 093°19'0 0.0
2018-Feb-20 11:00N 30°11' W 093°19'0 0.0
2018-Feb-20 10:30N 30°11' W 093°19'0 0.0
2018-Feb-20 10:00N 30°11' W 093°19'0 0.0
2018-Feb-20 09:30N 30°11' W 093°19'0 0.0
2018-Feb-20 09:00N 30°11' W 093°19'0 0.0
2018-Feb-20 08:30N 30°11' W 093°19'0 0.0
2018-Feb-20 07:48N 30°11' W 093°19'0 0.0
2018-Feb-20 07:30N 30°11' W 093°19'0 0.0
2018-Feb-20 07:00N 30°11' W 093°19'0 0.0
2018-Feb-20 06:30N 30°11' W 093°19'0 0.0
2018-Feb-20 06:00N 30°11' W 093°19'0 0.0
2018-Feb-20 05:30N 30°11' W 093°19'0 0.0
2018-Feb-20 05:00N 30°11' W 093°19'0 0.0
2018-Feb-20 04:30N 30°11' W 093°19'0 0.0
2018-Feb-20 04:00N 30°11' W 093°19'0 0.0
2018-Feb-20 03:30N 30°11' W 093°19'0 0.0
2018-Feb-20 03:00N 30°11' W 093°19'0 0.0
2018-Feb-20 02:30N 30°11' W 093°19'0 0.0
2018-Feb-20 02:00N 30°11' W 093°19'0 0.0
2018-Feb-20 01:30N 30°11' W 093°19'0 0.0
2018-Feb-20 01:00N 30°11' W 093°19'0 0.0
2018-Feb-20 00:30N 30°11' W 093°19'0 0.0
2018-Feb-20 00:00N 30°11' W 093°19'0 0.0
2018-Feb-19 23:30N 30°11' W 093°19'0 0.0
2018-Feb-19 23:00N 30°11' W 093°19'0 0.0
2018-Feb-19 22:30N 30°11' W 093°19'0 0.0
2018-Feb-19 22:00N 30°11' W 093°19'0 0.0
2018-Feb-19 21:30N 30°11' W 093°19'0 0.0
2018-Feb-19 21:00N 30°11' W 093°19'0 0.0
2018-Feb-19 20:30N 30°11' W 093°19'0 0.0
2018-Feb-19 20:00N 30°11' W 093°19'0 0.0
2018-Feb-19 19:30N 30°11' W 093°19'0 0.7
2018-Feb-19 18:59N 30°11' W 093°19'0 0.0
2018-Feb-19 18:30N 30°11' W 093°19'0 0.4
2018-Feb-19 18:00N 30°11' W 093°19'0 0.4
2018-Feb-19 17:30N 30°11' W 093°19'0 0.0
2018-Feb-19 17:00N 30°11' W 093°19'0 0.0
2018-Feb-19 16:30N 30°11' W 093°19'0 0.0
2018-Feb-19 16:00N 30°11' W 093°19'0 0.0
2018-Feb-19 15:30N 30°11' W 093°19'0 0.0
2018-Feb-19 15:00N 30°11' W 093°19'0 0.0
2018-Feb-19 14:26N 30°11' W 093°19'0 0.0
2018-Feb-19 14:00N 30°11' W 093°19'0 0.0
2018-Feb-19 13:30N 30°11' W 093°19'0 0.0
2018-Feb-19 13:00N 30°11' W 093°19'0 0.0
2018-Feb-19 12:30N 30°11' W 093°19'0 0.0
2018-Feb-19 12:00N 30°11' W 093°19'2 4.1
2018-Feb-19 11:30N 30°09' W 093°20'2 4.6
2018-Feb-19 11:00N 30°07' W 093°20'2 3.9
2018-Feb-19 10:30N 30°05' W 093°20'0 0.5
2018-Feb-19 10:00N 30°05' W 093°20'0 0.0
2018-Feb-19 09:28N 30°05' W 093°20'0 0.0
2018-Feb-19 09:00N 30°05' W 093°20'0 0.0
2018-Feb-19 08:30N 30°05' W 093°20'0 0.0
2018-Feb-19 08:00N 30°05' W 093°20'0 0.0
2018-Feb-19 07:30N 30°05' W 093°20'0 0.0
2018-Feb-19 07:00N 30°05' W 093°20'0 0.0
2018-Feb-19 06:30N 30°05' W 093°20'0 0.0
2018-Feb-19 06:00N 30°05' W 093°20'0 0.0
2018-Feb-19 05:30N 30°05' W 093°20'0 0.0
2018-Feb-19 05:00N 30°05' W 093°20'0 0.0
2018-Feb-19 04:30N 30°05' W 093°20'0 0.0
2018-Feb-19 04:00N 30°05' W 093°20'0 0.0
2018-Feb-19 03:30N 30°05' W 093°20'0 0.0
2018-Feb-19 03:00N 30°05' W 093°20'0 0.0
2018-Feb-19 02:30N 30°05' W 093°20'0 0.0
2018-Feb-19 02:00N 30°05' W 093°20'0 0.0
2018-Feb-19 01:30N 30°05' W 093°20'0 0.0
2018-Feb-19 01:00N 30°05' W 093°20'0 0.0
2018-Feb-19 00:30N 30°05' W 093°20'0 0.0
2018-Feb-19 00:00N 30°05' W 093°20'0 0.0
2018-Feb-18 23:30N 30°05' W 093°20'0 0.0
2018-Feb-18 23:00N 30°05' W 093°20'0 0.0
2018-Feb-18 22:30N 30°05' W 093°20'0 0.0
2018-Feb-18 21:57N 30°05' W 093°20'0 0.2
2018-Feb-18 21:30N 30°05' W 093°20'0 0.0
2018-Feb-18 21:00N 30°05' W 093°20'0 0.0
2018-Feb-18 20:30N 30°05' W 093°20'0 0.0
2018-Feb-18 20:00N 30°05' W 093°20'0 0.0
2018-Feb-18 19:30N 30°05' W 093°20'0 0.0
2018-Feb-18 19:00N 30°05' W 093°20'0 0.0
2018-Feb-18 18:30N 30°05' W 093°20'0 0.0
2018-Feb-18 18:00N 30°05' W 093°20'0 0.0
2018-Feb-18 17:30N 30°05' W 093°20'0 0.0
2018-Feb-18 17:00N 30°05' W 093°20'0 0.7
2018-Feb-18 16:30N 30°05' W 093°20'0 0.0
2018-Feb-18 16:00N 30°05' W 093°20'0 0.0
2018-Feb-18 15:30N 30°05' W 093°20'0 0.0
2018-Feb-18 15:00N 30°05' W 093°20'0 0.0
2018-Feb-18 14:30N 30°05' W 093°20'0 0.0
2018-Feb-18 14:00N 30°05' W 093°20'0 0.0
2018-Feb-18 13:30N 30°05' W 093°20'0 0.0
2018-Feb-18 13:00N 30°05' W 093°20'0 0.0
2018-Feb-18 12:30N 30°05' W 093°20'0 0.0
2018-Feb-18 12:00N 30°05' W 093°20'0 0.0
2018-Feb-18 11:30N 30°05' W 093°20'0 0.0
2018-Feb-18 11:00N 30°05' W 093°20'0 0.0
2018-Feb-18 10:30N 30°05' W 093°20'0 0.0
2018-Feb-18 10:00N 30°05' W 093°20'0 0.0
2018-Feb-18 09:30N 30°05' W 093°20'0 0.0
2018-Feb-18 09:00N 30°05' W 093°20'0 0.0
2018-Feb-18 08:30N 30°05' W 093°20'0 0.0
2018-Feb-18 08:00N 30°05' W 093°20'0 0.0
2018-Feb-18 07:30N 30°05' W 093°20'0 0.0
2018-Feb-18 07:00N 30°05' W 093°20'0 0.0
2018-Feb-18 06:29N 30°05' W 093°20'0 0.0
2018-Feb-18 06:00N 30°05' W 093°20'0 0.0
2018-Feb-18 05:30N 30°05' W 093°20'0 0.0
2018-Feb-18 05:00N 30°05' W 093°20'0 0.0
2018-Feb-18 04:30N 30°05' W 093°20'0 0.0
2018-Feb-18 04:00N 30°05' W 093°20'0 0.0
2018-Feb-18 03:30N 30°05' W 093°20'0 0.0
2018-Feb-18 03:00N 30°05' W 093°20'0 0.0
2018-Feb-18 02:30N 30°05' W 093°20'0 0.0
2018-Feb-18 02:00N 30°05' W 093°20'0 0.0
2018-Feb-18 01:30N 30°05' W 093°20'0 0.0
2018-Feb-18 01:00N 30°05' W 093°20'0 0.0
2018-Feb-18 00:30N 30°05' W 093°20'0 0.0
2018-Feb-18 00:00N 30°05' W 093°20'0 0.7
2018-Feb-17 23:30N 30°05' W 093°20'1 1.1
2018-Feb-17 23:00N 30°05' W 093°20'1 1.1
2018-Feb-17 22:30N 30°06' W 093°20'2 3.7
2018-Feb-17 22:00N 30°04' W 093°21'2 4.3
2018-Feb-17 21:30N 30°04' W 093°23'3 5.8
2018-Feb-17 21:00N 30°04' W 093°26'3 5.7
2018-Feb-17 20:30N 30°04' W 093°30'3 5.6
2018-Feb-17 20:00N 30°04' W 093°33'3 5.7
2018-Feb-17 19:30N 30°04' W 093°36'3 5.9
2018-Feb-17 19:00N 30°04' W 093°40'3 5.9
2018-Feb-17 18:30N 30°03' W 093°43'3 5.6
2018-Feb-17 18:00N 30°01' W 093°45'3 5.9
2018-Feb-17 17:30N 29°59' W 093°48'3 6.0
2018-Feb-17 17:00N 29°58' W 093°51'3 5.2
2018-Feb-17 16:30N 29°56' W 093°52'3 6.6
2018-Feb-17 16:00N 29°53' W 093°55'3 6.3
2018-Feb-17 15:30N 29°51' W 093°57'2 3.4
2018-Feb-17 15:00N 29°49' W 093°58'1 1.5
2018-Feb-17 14:30N 29°49' W 093°59'0 0.0
2018-Feb-17 14:00N 29°49' W 093°59'0 0.0
2018-Feb-17 13:30N 29°49' W 093°59'0 0.0
2018-Feb-17 13:00N 29°49' W 093°59'0 0.0
2018-Feb-17 12:30N 29°49' W 093°59'0 0.0
2018-Feb-17 12:00N 29°49' W 093°59'0 0.0
2018-Feb-17 11:30N 29°49' W 093°59'0 0.0
2018-Feb-17 11:00N 29°49' W 093°59'0 0.0
2018-Feb-17 10:30N 29°49' W 093°59'0 0.0
2018-Feb-17 10:00N 29°49' W 093°59'0 0.0
2018-Feb-17 09:30N 29°49' W 093°59'0 0.0
2018-Feb-17 09:00N 29°49' W 093°59'0 0.0
2018-Feb-17 08:30N 29°49' W 093°59'0 0.0
2018-Feb-17 08:00N 29°49' W 093°59'0 0.0
2018-Feb-17 07:30N 29°49' W 093°59'0 0.0
2018-Feb-17 07:00N 29°49' W 093°59'0 0.0
2018-Feb-17 06:30N 29°49' W 093°59'0 0.0
2018-Feb-17 06:00N 29°49' W 093°59'0 0.0
2018-Feb-17 05:30N 29°49' W 093°59'0 0.0
2018-Feb-17 05:00N 29°49' W 093°59'0 0.0
2018-Feb-17 04:30N 29°49' W 093°59'0 0.0
2018-Feb-17 04:00N 29°49' W 093°59'0 0.0
2018-Feb-17 03:30N 29°49' W 093°59'0 0.0
2018-Feb-17 03:00N 29°49' W 093°59'0 0.1
2018-Feb-17 02:31N 29°49' W 093°59'0 0.0
2018-Feb-17 02:00N 29°49' W 093°59'0 0.1
2018-Feb-17 01:30N 29°49' W 093°59'0 0.6
2018-Feb-17 01:00N 29°49' W 093°59'2 3.6
2018-Feb-17 00:30N 29°48' W 094°01'3 5.1
2018-Feb-17 00:00N 29°46' W 094°03'3 5.1
2018-Feb-16 23:30N 29°44' W 094°05'3 5.3
2018-Feb-16 23:00N 29°43' W 094°07'2 4.7
2018-Feb-16 22:30N 29°41' W 094°10'2 4.4
2018-Feb-16 22:00N 29°41' W 094°12'2 3.9
2018-Feb-16 21:30N 29°40' W 094°14'2 4.9
2018-Feb-16 21:00N 29°39' W 094°16'2 4.4
2018-Feb-16 20:30N 29°38' W 094°19'2 3.9
2018-Feb-16 20:00N 29°37' W 094°21'2 4.4
2018-Feb-16 19:30N 29°36' W 094°23'2 3.0
2018-Feb-16 18:50N 29°35' W 094°25'2 3.8
2018-Feb-16 18:25N 29°34' W 094°26'2 4.2
2018-Feb-16 18:00N 29°33' W 094°28'4 0.5
2018-Feb-16 10:19N 29°31' W 094°32'0 0.0
2018-Feb-16 09:58N 29°31' W 094°32'0 0.0
2018-Feb-16 09:20N 29°31' W 094°32'0 0.0
2018-Feb-16 08:52N 29°31' W 094°32'0 0.0
2018-Feb-16 08:30N 29°31' W 094°32'0 0.0
2018-Feb-16 08:00N 29°31' W 094°32'0 0.0
2018-Feb-16 07:26N 29°31' W 094°32'0 0.0
2018-Feb-16 07:00N 29°31' W 094°32'0 0.0
2018-Feb-16 06:30N 29°31' W 094°32'0 0.0
2018-Feb-16 05:56N 29°31' W 094°32'0 0.0
2018-Feb-16 05:23N 29°31' W 094°32'0 0.0
2018-Feb-16 04:46N 29°31' W 094°32'0 0.0
2018-Feb-16 04:17N 29°31' W 094°32'0 0.0
2018-Feb-16 03:42N 29°31' W 094°32'0 0.0
2018-Feb-16 03:28N 29°31' W 094°32'0 0.0
2018-Feb-16 02:48N 29°31' W 094°32'0 0.0
2018-Feb-16 02:30N 29°31' W 094°32'0 0.0
2018-Feb-16 01:53N 29°31' W 094°32'0 0.0
2018-Feb-16 01:30N 29°31' W 094°32'0 0.0
2018-Feb-16 01:00N 29°31' W 094°32'0 0.0
2018-Feb-16 00:24N 29°31' W 094°32'0 0.0
2018-Feb-15 23:59N 29°31' W 094°32'0 0.1
2018-Feb-15 23:27N 29°31' W 094°32'0 0.1
2018-Feb-15 22:58N 29°30' W 094°32'0 0.2
2018-Feb-15 22:27N 29°30' W 094°32'0 0.1
2018-Feb-15 21:19N 29°30' W 094°32'1 4.0
2018-Feb-15 20:59N 29°30' W 094°34'4 5.4
2018-Feb-15 20:12N 29°28' W 094°38'1 5.5
2018-Feb-15 19:59N 29°28' W 094°39'3 5.5
2018-Feb-15 19:22N 29°26' W 094°43'7 2.0
2018-Feb-15 15:36N 29°21' W 094°49'0 0.0
2018-Feb-15 13:59N 29°21' W 094°49'0 0.0
2018-Feb-15 13:29N 29°21' W 094°49'0 0.0
2018-Feb-15 12:55N 29°21' W 094°49'0 0.0
2018-Feb-15 12:28N 29°21' W 094°49'0 0.0
2018-Feb-15 11:58N 29°21' W 094°49'0 0.0
2018-Feb-15 11:20N 29°21' W 094°49'0 0.0
2018-Feb-15 10:49N 29°21' W 094°49'0 0.0
2018-Feb-15 10:24N 29°21' W 094°49'0 0.0
2018-Feb-15 09:52N 29°21' W 094°49'0 0.0
2018-Feb-15 09:28N 29°21' W 094°49'0 0.0
2018-Feb-15 08:56N 29°21' W 094°49'0 0.0
2018-Feb-15 08:30N 29°21' W 094°49'0 0.0
2018-Feb-15 08:00N 29°21' W 094°49'0 0.0
2018-Feb-15 07:24N 29°21' W 094°49'0 0.0
2018-Feb-15 07:00N 29°21' W 094°49'0 0.0
2018-Feb-15 06:21N 29°21' W 094°49'0 0.0
2018-Feb-15 06:00N 29°21' W 094°49'0 0.0
2018-Feb-15 05:26N 29°21' W 094°49'0 0.0
2018-Feb-15 04:59N 29°21' W 094°49'0 0.0
2018-Feb-15 04:30N 29°21' W 094°49'0 0.0
2018-Feb-15 04:00N 29°21' W 094°49'0 0.0
2018-Feb-15 03:30N 29°21' W 094°49'0 0.0
2018-Feb-15 03:00N 29°21' W 094°49'0 0.0
2018-Feb-15 02:30N 29°21' W 094°49'0 0.0
2018-Feb-15 02:00N 29°21' W 094°49'0 0.0
2018-Feb-15 01:21N 29°21' W 094°49'0 0.0
2018-Feb-15 01:00N 29°21' W 094°49'0 0.1
2018-Feb-15 00:16N 29°21' W 094°49'1 1.8
2018-Feb-14 23:58N 29°21' W 094°50'2 3.3
2018-Feb-14 23:29N 29°20' W 094°51'2 4.1
2018-Feb-14 22:59N 29°18' W 094°53'1 3.0
2018-Feb-14 22:30N 29°17' W 094°54'4 4.1
2018-Feb-14 21:32N 29°17' W 094°59'0 2.0
2018-Feb-14 21:25N 29°17' W 094°59'3 4.1
2018-Feb-14 20:46N 29°15' W 095°01'1 4.6
2018-Feb-14 20:29N 29°14' W 095°02'2 4.5
2018-Feb-14 20:00N 29°12' W 095°03'3 4.8
2018-Feb-14 19:26N 29°11' W 095°06'0 0.6
2018-Feb-14 18:57N 29°10' W 095°06'0 0.0
2018-Feb-14 18:29N 29°10' W 095°06'0 0.0
2018-Feb-14 18:00N 29°10' W 095°06'0 0.0
2018-Feb-14 17:28N 29°10' W 095°06'0 0.0
2018-Feb-14 16:59N 29°10' W 095°06'0 0.0
2018-Feb-14 16:29N 29°10' W 095°06'0 0.0
2018-Feb-14 15:45N 29°10' W 095°06'0 0.0
2018-Feb-14 15:30N 29°10' W 095°06'0 0.0
2018-Feb-14 14:54N 29°10' W 095°06'0 0.0
2018-Feb-14 14:30N 29°10' W 095°06'0 0.0
2018-Feb-14 13:48N 29°10' W 095°06'0 0.0
2018-Feb-14 13:30N 29°10' W 095°06'0 0.0
2018-Feb-14 12:59N 29°10' W 095°06'  
Track history (hours):
 
Tides and Currents Weather Stations Pressure Air Temp Water Temp Dewpoint Dewpoint Depression Visibility Wind Speed Wind Dir Waves Ship Positions

Scott Camp

Owner: Florida Marine Transporters, Inc., Mandeville, LA. More information available from US FCC via Universal Licensing System and Coast Guard Vessel Documentation Center.

Last reported at 2018-Feb-23 18:23 UTC. Time now 2018-Feb-25 03:48 UTC.
Position N 29°25' W 094°43'.

Length 27 m; draft 2.5 m.

Type: Towing. MMSI: 367437150.

Date/timePositionNaut miles runAvg speedWind from/ knotsBaromVisibWave heightAir tempDewpointWater temp
2018-Feb-23 18:23N 29°25' W 094°43'2 4.6
2018-Feb-23 17:56N 29°27' W 094°42'1 0.2
2018-Feb-23 09:31N 29°27' W 094°40'0 0.0
2018-Feb-23 09:30N 29°27' W 094°40'0 0.0
2018-Feb-23 08:37N 29°27' W 094°40'0 0.0
2018-Feb-23 08:26N 29°27' W 094°40'0 0.0
2018-Feb-23 07:33N 29°27' W 094°40'0 0.0
2018-Feb-23 07:24N 29°27' W 094°40'0 0.0
2018-Feb-23 06:19N 29°27' W 094°40'0 0.0
2018-Feb-23 03:36N 29°27' W 094°40'17 5.2
2018-Feb-23 00:26N 29°36' W 094°24'3 6.4
2018-Feb-22 23:57N 29°37' W 094°21'3 7.0
2018-Feb-22 23:30N 29°38' W 094°18'4 7.0
2018-Feb-22 23:00N 29°40' W 094°14'3 5.9
2018-Feb-22 22:30N 29°41' W 094°11'3 6.3
2018-Feb-22 22:00N 29°43' W 094°08'3 6.8
2018-Feb-22 21:30N 29°45' W 094°05'3 6.8
2018-Feb-22 21:00N 29°47' W 094°02'3 6.5
2018-Feb-22 20:30N 29°49' W 093°59'3 6.6
2018-Feb-22 20:00N 29°52' W 093°56'4 7.6
2018-Feb-22 19:30N 29°55' W 093°54'3 6.1
2018-Feb-22 19:00N 29°57' W 093°52'4 7.2
2018-Feb-22 18:30N 29°59' W 093°48'4 7.6
2018-Feb-22 18:00N 30°01' W 093°45'3 6.5
2018-Feb-22 17:30N 30°03' W 093°42'4 7.0
2018-Feb-22 16:58N 30°04' W 093°38'2 4.2
2018-Feb-22 16:30N 30°04' W 093°35'4 6.2
2018-Feb-22 15:52N 30°04' W 093°31'2 6.3
2018-Feb-22 15:30N 30°04' W 093°28'4 6.1
2018-Feb-22 14:54N 30°04' W 093°24'3 4.9
2018-Feb-22 14:18N 30°04' W 093°21'1 4.4
2018-Feb-22 14:00N 30°05' W 093°20'1 1.9
2018-Feb-22 13:16N 30°04' W 093°21'0 0.0
2018-Feb-22 13:00N 30°04' W 093°21'0 0.0
2018-Feb-22 12:28N 30°04' W 093°21'0 0.0
2018-Feb-22 10:58N 30°04' W 093°21'0 0.0
2018-Feb-22 10:22N 30°04' W 093°21'0 0.0
2018-Feb-22 10:00N 30°04' W 093°21'0 0.0
2018-Feb-22 09:30N 30°04' W 093°21'0 0.0
2018-Feb-22 08:42N 30°04' W 093°21'0 0.0
2018-Feb-22 08:30N 30°04' W 093°21'0 0.0
2018-Feb-22 07:58N 30°04' W 093°21'0 0.0
2018-Feb-22 07:30N 30°04' W 093°21'0 0.0
2018-Feb-22 07:00N 30°04' W 093°21'0 0.0
2018-Feb-22 06:28N 30°04' W 093°21'0 0.0
2018-Feb-22 06:00N 30°04' W 093°21'0 0.0
2018-Feb-22 05:24N 30°04' W 093°21'0 0.0
2018-Feb-22 05:00N 30°04' W 093°21'0 0.0
2018-Feb-22 04:24N 30°04' W 093°21'0 0.0
2018-Feb-22 03:50N 30°04' W 093°21'0 0.0
2018-Feb-22 03:28N 30°04' W 093°21'0 0.0
2018-Feb-22 03:00N 30°04' W 093°21'0 0.0
2018-Feb-22 02:24N 30°04' W 093°21'0 0.0
2018-Feb-22 01:46N 30°04' W 093°21'0 0.0
2018-Feb-22 01:30N 30°04' W 093°21'0 0.0
2018-Feb-22 00:50N 30°04' W 093°21'0 0.0
2018-Feb-22 00:30N 30°04' W 093°21'2 3.6
2018-Feb-22 00:00N 30°06' W 093°20'4 6.7
2018-Feb-21 23:28N 30°09' W 093°20'2 2.8
2018-Feb-21 22:50N 30°11' W 093°19'0 0.0
2018-Feb-21 22:30N 30°11' W 093°19'0 0.0
2018-Feb-21 22:00N 30°11' W 093°19'0 0.0
2018-Feb-21 21:22N 30°11' W 093°19'0 0.0
2018-Feb-21 21:00N 30°11' W 093°19'0 0.0
2018-Feb-21 20:30N 30°11' W 093°19'0 0.0
2018-Feb-21 20:00N 30°11' W 093°19'0 0.0
2018-Feb-21 19:24N 30°11' W 093°19'0 0.0
2018-Feb-21 19:00N 30°11' W 093°19'0 0.0
2018-Feb-21 18:28N 30°11' W 093°19'0 0.0
2018-Feb-21 18:00N 30°11' W 093°19'0 0.0
2018-Feb-21 17:30N 30°11' W 093°19'0 0.0
2018-Feb-21 17:00N 30°11' W 093°19'0 0.0
2018-Feb-21 16:30N 30°11' W 093°19'0 0.0
2018-Feb-21 16:00N 30°11' W 093°19'0 0.0
2018-Feb-21 15:30N 30°11' W 093°19'0 0.0
2018-Feb-21 14:58N 30°11' W 093°19'0 0.0
2018-Feb-21 14:30N 30°11' W 093°19'0 0.0
2018-Feb-21 14:00N 30°11' W 093°19'0 0.0
2018-Feb-21 13:30N 30°11' W 093°19'0 0.0
2018-Feb-21 13:00N 30°11' W 093°19'0 0.0
2018-Feb-21 12:30N 30°11' W 093°19'0 0.0
2018-Feb-21 12:00N 30°11' W 093°19'0 0.0
2018-Feb-21 11:30N 30°11' W 093°19'0 0.7
2018-Feb-21 11:00N 30°11' W 093°18'1 2.5
2018-Feb-21 10:31N 30°10' W 093°19'0 0.3
2018-Feb-21 10:00N 30°10' W 093°19'3 6.5
2018-Feb-21 09:30N 30°07' W 093°20'2 4.6
2018-Feb-21 09:00N 30°05' W 093°20'1 2.8
2018-Feb-21 08:30N 30°04' W 093°21'1 2.0
2018-Feb-21 08:00N 30°04' W 093°21'0 0.1
2018-Feb-21 07:30N 30°04' W 093°21'0 0.0
2018-Feb-21 07:00N 30°04' W 093°21'0 0.7
2018-Feb-21 06:30N 30°05' W 093°20'2 3.6
2018-Feb-21 06:00N 30°06' W 093°20'3 6.8
2018-Feb-21 05:30N 30°10' W 093°19'2 3.2
2018-Feb-21 05:00N 30°11' W 093°19'0 0.0
2018-Feb-21 04:30N 30°11' W 093°19'0 0.0
2018-Feb-21 04:00N 30°11' W 093°19'0 0.0
2018-Feb-21 03:30N 30°11' W 093°19'0 0.0
2018-Feb-21 03:00N 30°11' W 093°19'0 0.0
2018-Feb-21 02:30N 30°11' W 093°19'0 0.0
2018-Feb-21 02:00N 30°11' W 093°19'0 0.0
2018-Feb-21 01:30N 30°11' W 093°19'0 0.0
2018-Feb-21 01:00N 30°11' W 093°19'0 0.0
2018-Feb-21 00:30N 30°11' W 093°19'0 0.0
2018-Feb-21 00:00N 30°11' W 093°19'0 0.0
2018-Feb-20 23:30N 30°11' W 093°19'0 0.0
2018-Feb-20 23:00N 30°11' W 093°19'0 0.0
2018-Feb-20 22:30N 30°11' W 093°19'2 3.2
2018-Feb-20 22:00N 30°10' W 093°19'1 1.0
2018-Feb-20 21:30N 30°10' W 093°19'1 2.2
2018-Feb-20 21:00N 30°11' W 093°19'0 0.0
2018-Feb-20 20:29N 30°11' W 093°19'0 0.1
2018-Feb-20 20:00N 30°11' W 093°19'0 0.1
2018-Feb-20 19:30N 30°11' W 093°19'0 0.1
2018-Feb-20 19:00N 30°11' W 093°19'0 0.0
2018-Feb-20 18:30N 30°11' W 093°19'0 0.0
2018-Feb-20 18:00N 30°11' W 093°19'0 0.0
2018-Feb-20 17:30N 30°11' W 093°19'0 0.0
2018-Feb-20 17:00N 30°11' W 093°19'0 0.0
2018-Feb-20 16:30N 30°11' W 093°19'0 0.0
2018-Feb-20 16:00N 30°11' W 093°19'0 0.0
2018-Feb-20 15:30N 30°11' W 093°19'0 0.0
2018-Feb-20 15:00N 30°11' W 093°19'0 0.0
2018-Feb-20 14:30N 30°11' W 093°19'0 0.0
2018-Feb-20 14:00N 30°11' W 093°19'0 0.0
2018-Feb-20 13:30N 30°11' W 093°19'0 0.0
2018-Feb-20 13:00N 30°11' W 093°19'0 0.0
2018-Feb-20 12:30N 30°11' W 093°19'0 0.0
2018-Feb-20 12:00N 30°11' W 093°19'0 0.0
2018-Feb-20 11:30N 30°11' W 093°19'0 0.0
2018-Feb-20 11:00N 30°11' W 093°19'0 0.0
2018-Feb-20 10:30N 30°11' W 093°19'0 0.0
2018-Feb-20 10:00N 30°11' W 093°19'0 0.0
2018-Feb-20 09:30N 30°11' W 093°19'0 0.0
2018-Feb-20 09:00N 30°11' W 093°19'0 0.0
2018-Feb-20 08:30N 30°11' W 093°19'0 0.0
2018-Feb-20 07:48N 30°11' W 093°19'0 0.0
2018-Feb-20 07:30N 30°11' W 093°19'0 0.0
2018-Feb-20 07:00N 30°11' W 093°19'0 0.0
2018-Feb-20 06:30N 30°11' W 093°19'0 0.0
2018-Feb-20 06:00N 30°11' W 093°19'0 0.0
2018-Feb-20 05:30N 30°11' W 093°19'0 0.0
2018-Feb-20 05:00N 30°11' W 093°19'0 0.0
2018-Feb-20 04:30N 30°11' W 093°19'0 0.0
2018-Feb-20 04:00N 30°11' W 093°19'0 0.0
2018-Feb-20 03:30N 30°11' W 093°19'0 0.0
2018-Feb-20 03:00N 30°11' W 093°19'0 0.0
2018-Feb-20 02:30N 30°11' W 093°19'0 0.0
2018-Feb-20 02:00N 30°11' W 093°19'0 0.0
2018-Feb-20 01:30N 30°11' W 093°19'0 0.0
2018-Feb-20 01:00N 30°11' W 093°19'0 0.0
2018-Feb-20 00:30N 30°11' W 093°19'0 0.0
2018-Feb-20 00:00N 30°11' W 093°19'0 0.0
2018-Feb-19 23:30N 30°11' W 093°19'0 0.0
2018-Feb-19 23:00N 30°11' W 093°19'0 0.0
2018-Feb-19 22:30N 30°11' W 093°19'0 0.0
2018-Feb-19 22:00N 30°11' W 093°19'0 0.0
2018-Feb-19 21:30N 30°11' W 093°19'0 0.0
2018-Feb-19 21:00N 30°11' W 093°19'0 0.0
2018-Feb-19 20:30N 30°11' W 093°19'0 0.0
2018-Feb-19 20:00N 30°11' W 093°19'0 0.0
2018-Feb-19 19:30N 30°11' W 093°19'0 0.7
2018-Feb-19 18:59N 30°11' W 093°19'0 0.0
2018-Feb-19 18:30N 30°11' W 093°19'0 0.4
2018-Feb-19 18:00N 30°11' W 093°19'0 0.4
2018-Feb-19 17:30N 30°11' W 093°19'0 0.0
2018-Feb-19 17:00N 30°11' W 093°19'0 0.0
2018-Feb-19 16:30N 30°11' W 093°19'0 0.0
2018-Feb-19 16:00N 30°11' W 093°19'0 0.0
2018-Feb-19 15:30N 30°11' W 093°19'0 0.0
2018-Feb-19 15:00N 30°11' W 093°19'0 0.0
2018-Feb-19 14:26N 30°11' W 093°19'0 0.0
2018-Feb-19 14:00N 30°11' W 093°19'0 0.0
2018-Feb-19 13:30N 30°11' W 093°19'0 0.0
2018-Feb-19 13:00N 30°11' W 093°19'0 0.0
2018-Feb-19 12:30N 30°11' W 093°19'0 0.0
2018-Feb-19 12:00N 30°11' W 093°19'2 4.1
2018-Feb-19 11:30N 30°09' W 093°20'2 4.6
2018-Feb-19 11:00N 30°07' W 093°20'2 3.9
2018-Feb-19 10:30N 30°05' W 093°20'0 0.5
2018-Feb-19 10:00N 30°05' W 093°20'0 0.0
2018-Feb-19 09:28N 30°05' W 093°20'0 0.0
2018-Feb-19 09:00N 30°05' W 093°20'0 0.0
2018-Feb-19 08:30N 30°05' W 093°20'0 0.0
2018-Feb-19 08:00N 30°05' W 093°20'0 0.0
2018-Feb-19 07:30N 30°05' W 093°20'0 0.0
2018-Feb-19 07:00N 30°05' W 093°20'0 0.0
2018-Feb-19 06:30N 30°05' W 093°20'0 0.0
2018-Feb-19 06:00N 30°05' W 093°20'0 0.0
2018-Feb-19 05:30N 30°05' W 093°20'0 0.0
2018-Feb-19 05:00N 30°05' W 093°20'0 0.0
2018-Feb-19 04:30N 30°05' W 093°20'0 0.0
2018-Feb-19 04:00N 30°05' W 093°20'0 0.0
2018-Feb-19 03:30N 30°05' W 093°20'0 0.0
2018-Feb-19 03:00N 30°05' W 093°20'0 0.0
2018-Feb-19 02:30N 30°05' W 093°20'0 0.0
2018-Feb-19 02:00N 30°05' W 093°20'0 0.0
2018-Feb-19 01:30N 30°05' W 093°20'0 0.0
2018-Feb-19 01:00N 30°05' W 093°20'0 0.0
2018-Feb-19 00:30N 30°05' W 093°20'0 0.0
2018-Feb-19 00:00N 30°05' W 093°20'0 0.0
2018-Feb-18 23:30N 30°05' W 093°20'0 0.0
2018-Feb-18 23:00N 30°05' W 093°20'0 0.0
2018-Feb-18 22:30N 30°05' W 093°20'0 0.0
2018-Feb-18 21:57N 30°05' W 093°20'0 0.2
2018-Feb-18 21:30N 30°05' W 093°20'0 0.0
2018-Feb-18 21:00N 30°05' W 093°20'0 0.0
2018-Feb-18 20:30N 30°05' W 093°20'0 0.0
2018-Feb-18 20:00N 30°05' W 093°20'0 0.0
2018-Feb-18 19:30N 30°05' W 093°20'0 0.0
2018-Feb-18 19:00N 30°05' W 093°20'0 0.0
2018-Feb-18 18:30N 30°05' W 093°20'0 0.0
2018-Feb-18 18:00N 30°05' W 093°20'0 0.0
2018-Feb-18 17:30N 30°05' W 093°20'0 0.0
2018-Feb-18 17:00N 30°05' W 093°20'0 0.7
2018-Feb-18 16:30N 30°05' W 093°20'0 0.0
2018-Feb-18 16:00N 30°05' W 093°20'0 0.0
2018-Feb-18 15:30N 30°05' W 093°20'0 0.0
2018-Feb-18 15:00N 30°05' W 093°20'0 0.0
2018-Feb-18 14:30N 30°05' W 093°20'0 0.0
2018-Feb-18 14:00N 30°05' W 093°20'0 0.0
2018-Feb-18 13:30N 30°05' W 093°20'0 0.0
2018-Feb-18 13:00N 30°05' W 093°20'0 0.0
2018-Feb-18 12:30N 30°05' W 093°20'0 0.0
2018-Feb-18 12:00N 30°05' W 093°20'0 0.0
2018-Feb-18 11:30N 30°05' W 093°20'0 0.0
2018-Feb-18 11:00N 30°05' W 093°20'0 0.0
2018-Feb-18 10:30N 30°05' W 093°20'0 0.0
2018-Feb-18 10:00N 30°05' W 093°20'0 0.0
2018-Feb-18 09:30N 30°05' W 093°20'0 0.0
2018-Feb-18 09:00N 30°05' W 093°20'0 0.0
2018-Feb-18 08:30N 30°05' W 093°20'0 0.0
2018-Feb-18 08:00N 30°05' W 093°20'0 0.0
2018-Feb-18 07:30N 30°05' W 093°20'0 0.0
2018-Feb-18 07:00N 30°05' W 093°20'0 0.0
2018-Feb-18 06:29N 30°05' W 093°20'0 0.0
2018-Feb-18 06:00N 30°05' W 093°20'0 0.0
2018-Feb-18 05:30N 30°05' W 093°20'0 0.0
2018-Feb-18 05:00N 30°05' W 093°20'0 0.0
2018-Feb-18 04:30N 30°05' W 093°20'0 0.0
2018-Feb-18 04:00N 30°05' W 093°20'0 0.0
2018-Feb-18 03:30N 30°05' W 093°20'0 0.0
2018-Feb-18 03:00N 30°05' W 093°20'0 0.0
2018-Feb-18 02:30N 30°05' W 093°20'0 0.0
2018-Feb-18 02:00N 30°05' W 093°20'0 0.0
2018-Feb-18 01:30N 30°05' W 093°20'0 0.0
2018-Feb-18 01:00N 30°05' W 093°20'0 0.0
2018-Feb-18 00:30N 30°05' W 093°20'0 0.0
2018-Feb-18 00:00N 30°05' W 093°20'0 0.7
2018-Feb-17 23:30N 30°05' W 093°20'1 1.1
2018-Feb-17 23:00N 30°05' W 093°20'1 1.1
2018-Feb-17 22:30N 30°06' W 093°20'2 3.7
2018-Feb-17 22:00N 30°04' W 093°21'2 4.3
2018-Feb-17 21:30N 30°04' W 093°23'3 5.8
2018-Feb-17 21:00N 30°04' W 093°26'3 5.7
2018-Feb-17 20:30N 30°04' W 093°30'3 5.6
2018-Feb-17 20:00N 30°04' W 093°33'3 5.7
2018-Feb-17 19:30N 30°04' W 093°36'3 5.9
2018-Feb-17 19:00N 30°04' W 093°40'3 5.9
2018-Feb-17 18:30N 30°03' W 093°43'3 5.6
2018-Feb-17 18:00N 30°01' W 093°45'3 5.9
2018-Feb-17 17:30N 29°59' W 093°48'3 6.0
2018-Feb-17 17:00N 29°58' W 093°51'3 5.2
2018-Feb-17 16:30N 29°56' W 093°52'3 6.6
2018-Feb-17 16:00N 29°53' W 093°55'3 6.3
2018-Feb-17 15:30N 29°51' W 093°57'2 3.4
2018-Feb-17 15:00N 29°49' W 093°58'1 1.5
2018-Feb-17 14:30N 29°49' W 093°59'0 0.0
2018-Feb-17 14:00N 29°49' W 093°59'0 0.0
2018-Feb-17 13:30N 29°49' W 093°59'0 0.0
2018-Feb-17 13:00N 29°49' W 093°59'0 0.0
2018-Feb-17 12:30N 29°49' W 093°59'0 0.0
2018-Feb-17 12:00N 29°49' W 093°59'0 0.0
2018-Feb-17 11:30N 29°49' W 093°59'0 0.0
2018-Feb-17 11:00N 29°49' W 093°59'0 0.0
2018-Feb-17 10:30N 29°49' W 093°59'0 0.0
2018-Feb-17 10:00N 29°49' W 093°59'0 0.0
2018-Feb-17 09:30N 29°49' W 093°59'0 0.0
2018-Feb-17 09:00N 29°49' W 093°59'0 0.0
2018-Feb-17 08:30N 29°49' W 093°59'0 0.0
2018-Feb-17 08:00N 29°49' W 093°59'0 0.0
2018-Feb-17 07:30N 29°49' W 093°59'0 0.0
2018-Feb-17 07:00N 29°49' W 093°59'0 0.0
2018-Feb-17 06:30N 29°49' W 093°59'0 0.0
2018-Feb-17 06:00N 29°49' W 093°59'0 0.0
2018-Feb-17 05:30N 29°49' W 093°59'0 0.0
2018-Feb-17 05:00N 29°49' W 093°59'0 0.0
2018-Feb-17 04:30N 29°49' W 093°59'0 0.0
2018-Feb-17 04:00N 29°49' W 093°59'0 0.0
2018-Feb-17 03:30N 29°49' W 093°59'0 0.0
2018-Feb-17 03:00N 29°49' W 093°59'0 0.1
2018-Feb-17 02:31N 29°49' W 093°59'0 0.0
2018-Feb-17 02:00N 29°49' W 093°59'0 0.1
2018-Feb-17 01:30N 29°49' W 093°59'0 0.6
2018-Feb-17 01:00N 29°49' W 093°59'2 3.6
2018-Feb-17 00:30N 29°48' W 094°01'3 5.1
2018-Feb-17 00:00N 29°46' W 094°03'3 5.1
2018-Feb-16 23:30N 29°44' W 094°05'3 5.3
2018-Feb-16 23:00N 29°43' W 094°07'2 4.7
2018-Feb-16 22:30N 29°41' W 094°10'2 4.4
2018-Feb-16 22:00N 29°41' W 094°12'2 3.9
2018-Feb-16 21:30N 29°40' W 094°14'2 4.9
2018-Feb-16 21:00N 29°39' W 094°16'2 4.4
2018-Feb-16 20:30N 29°38' W 094°19'2 3.9
2018-Feb-16 20:00N 29°37' W 094°21'2 4.4
2018-Feb-16 19:30N 29°36' W 094°23'2 3.0
2018-Feb-16 18:50N 29°35' W 094°25'2 3.8
2018-Feb-16 18:25N 29°34' W 094°26'2 4.2
2018-Feb-16 18:00N 29°33' W 094°28'4 0.5
2018-Feb-16 10:19N 29°31' W 094°32'0 0.0
2018-Feb-16 09:58N 29°31' W 094°32'0 0.0
2018-Feb-16 09:20N 29°31' W 094°32'0 0.0
2018-Feb-16 08:52N 29°31' W 094°32'0 0.0
2018-Feb-16 08:30N 29°31' W 094°32'0 0.0
2018-Feb-16 08:00N 29°31' W 094°32'0 0.0
2018-Feb-16 07:26N 29°31' W 094°32'0 0.0
2018-Feb-16 07:00N 29°31' W 094°32'0 0.0
2018-Feb-16 06:30N 29°31' W 094°32'0 0.0
2018-Feb-16 05:56N 29°31' W 094°32'0 0.0
2018-Feb-16 05:23N 29°31' W 094°32'0 0.0
2018-Feb-16 04:46N 29°31' W 094°32'0 0.0
2018-Feb-16 04:17N 29°31' W 094°32'0 0.0
2018-Feb-16 03:42N 29°31' W 094°32'0 0.0
2018-Feb-16 03:28N 29°31' W 094°32'0 0.0
2018-Feb-16 02:48N 29°31' W 094°32'0 0.0
2018-Feb-16 02:30N 29°31' W 094°32'0 0.0
2018-Feb-16 01:53N 29°31' W 094°32'0 0.0
2018-Feb-16 01:30N 29°31' W 094°32'0 0.0
2018-Feb-16 01:00N 29°31' W 094°32'0 0.0
2018-Feb-16 00:24N 29°31' W 094°32'0 0.0
2018-Feb-15 23:59N 29°31' W 094°32'0 0.1
2018-Feb-15 23:27N 29°31' W 094°32'0 0.1
2018-Feb-15 22:58N 29°30' W 094°32'0 0.2
2018-Feb-15 22:27N 29°30' W 094°32'0 0.1
2018-Feb-15 21:19N 29°30' W 094°32'1 4.0
2018-Feb-15 20:59N 29°30' W 094°34'4 5.4
2018-Feb-15 20:12N 29°28' W 094°38'1 5.5
2018-Feb-15 19:59N 29°28' W 094°39'3 5.5
2018-Feb-15 19:22N 29°26' W 094°43'7 2.0
2018-Feb-15 15:36N 29°21' W 094°49'0 0.0
2018-Feb-15 13:59N 29°21' W 094°49'0 0.0
2018-Feb-15 13:29N 29°21' W 094°49'0 0.0
2018-Feb-15 12:55N 29°21' W 094°49'0 0.0
2018-Feb-15 12:28N 29°21' W 094°49'0 0.0
2018-Feb-15 11:58N 29°21' W 094°49'0 0.0
2018-Feb-15 11:20N 29°21' W 094°49'0 0.0
2018-Feb-15 10:49N 29°21' W 094°49'0 0.0
2018-Feb-15 10:24N 29°21' W 094°49'0 0.0
2018-Feb-15 09:52N 29°21' W 094°49'0 0.0
2018-Feb-15 09:28N 29°21' W 094°49'0 0.0
2018-Feb-15 08:56N 29°21' W 094°49'0 0.0
2018-Feb-15 08:30N 29°21' W 094°49'0 0.0
2018-Feb-15 08:00N 29°21' W 094°49'0 0.0
2018-Feb-15 07:24N 29°21' W 094°49'0 0.0
2018-Feb-15 07:00N 29°21' W 094°49'0 0.0
2018-Feb-15 06:21N 29°21' W 094°49'0 0.0
2018-Feb-15 06:00N 29°21' W 094°49'0 0.0
2018-Feb-15 05:26N 29°21' W 094°49'0 0.0
2018-Feb-15 04:59N 29°21' W 094°49'0 0.0
2018-Feb-15 04:30N 29°21' W 094°49'0 0.0
2018-Feb-15 04:00N 29°21' W 094°49'0 0.0
2018-Feb-15 03:30N 29°21' W 094°49'0 0.0
2018-Feb-15 03:00N 29°21' W 094°49'0 0.0
2018-Feb-15 02:30N 29°21' W 094°49'0 0.0
2018-Feb-15 02:00N 29°21' W 094°49'0 0.0
2018-Feb-15 01:21N 29°21' W 094°49'0 0.0
2018-Feb-15 01:00N 29°21' W 094°49'0 0.1
2018-Feb-15 00:16N 29°21' W 094°49'1 1.8
2018-Feb-14 23:58N 29°21' W 094°50'2 3.3
2018-Feb-14 23:29N 29°20' W 094°51'2 4.1
2018-Feb-14 22:59N 29°18' W 094°53'1 3.0
2018-Feb-14 22:30N 29°17' W 094°54'4 4.1
2018-Feb-14 21:32N 29°17' W 094°59'0 2.0
2018-Feb-14 21:25N 29°17' W 094°59'3 4.1
2018-Feb-14 20:46N 29°15' W 095°01'1 4.6
2018-Feb-14 20:29N 29°14' W 095°02'2 4.5
2018-Feb-14 20:00N 29°12' W 095°03'3 4.8
2018-Feb-14 19:26N 29°11' W 095°06'0 0.6
2018-Feb-14 18:57N 29°10' W 095°06'0 0.0
2018-Feb-14 18:29N 29°10' W 095°06'0 0.0
2018-Feb-14 18:00N 29°10' W 095°06'0 0.0
2018-Feb-14 17:28N 29°10' W 095°06'0 0.0
2018-Feb-14 16:59N 29°10' W 095°06'0 0.0
2018-Feb-14 16:29N 29°10' W 095°06'0 0.0
2018-Feb-14 15:45N 29°10' W 095°06'0 0.0
2018-Feb-14 15:30N 29°10' W 095°06'0 0.0
2018-Feb-14 14:54N 29°10' W 095°06'0 0.0
2018-Feb-14 14:30N 29°10' W 095°06'0 0.0
2018-Feb-14 13:48N 29°10' W 095°06'0 0.0
2018-Feb-14 13:30N 29°10' W 095°06'0 0.0
2018-Feb-14 12:59N 29°10' W 095°06'  

Dump ship's entire track history